AAL3524 CYYZ-KORD
Flight info
| Callsign | AAL3524 |
|---|---|
| Flight time | 0h 49m |
| Altitude | 36000 |
| Route | GOPUP4 HOCKE DCT FNT WYNDE3 |
| Aircraft | B752/M-SDE2E3FGHIJ3J4J7RWXY/LB1 |
Departure
| Time | 2026-05-06 21:39 |
|---|---|
| Airport | Toronto Pearson International Airport (CYYZ) |
Arrival
| Time | 2026-05-06 22:29 |
|---|---|
| Airport | Chicago O'Hare International Airport (KORD) |
| Time | Latitude | Longitude | Altitude | Speed | Heading |
|---|---|---|---|---|---|
| 2026-05-06 21:26 | 43.68432 | -79.62425 | 551 ft | 0 kts | 20° |
| 2026-05-06 21:31 | 43.68431 | -79.62425 | 551 ft | 1 kts | 20° |
| 2026-05-06 21:31 | 43.68419 | -79.62434 | 551 ft | 2 kts | 46° |
| 2026-05-06 21:31 | 43.68411 | -79.62451 | 551 ft | 2 kts | 67° |
| 2026-05-06 21:31 | 43.68407 | -79.62471 | 551 ft | 2 kts | 89° |
| 2026-05-06 21:32 | 43.68409 | -79.62491 | 551 ft | 2 kts | 111° |
| 2026-05-06 21:32 | 43.68427 | -79.62521 | 551 ft | 0 kts | 138° |
| 2026-05-06 21:32 | 43.68428 | -79.62523 | 551 ft | 0 kts | 136° |
| 2026-05-06 21:34 | 43.68427 | -79.62521 | 551 ft | 1 kts | 136° |
| 2026-05-06 21:34 | 43.68414 | -79.62505 | 551 ft | 3 kts | 137° |
| 2026-05-06 21:35 | 43.68388 | -79.62472 | 551 ft | 7 kts | 137° |
| 2026-05-06 21:35 | 43.68322 | -79.62387 | 551 ft | 10 kts | 148° |
| 2026-05-06 21:35 | 43.68266 | -79.62424 | 551 ft | 8 kts | 227° |
| 2026-05-06 21:35 | 43.68211 | -79.62415 | 551 ft | 11 kts | 144° |
| 2026-05-06 21:36 | 43.68150 | -79.62334 | 551 ft | 15 kts | 137° |
| 2026-05-06 21:36 | 43.68048 | -79.62200 | 551 ft | 24 kts | 136° |
| 2026-05-06 21:36 | 43.67889 | -79.62042 | 551 ft | 29 kts | 157° |
| 2026-05-06 21:36 | 43.67750 | -79.61882 | 552 ft | 24 kts | 136° |
| 2026-05-06 21:37 | 43.67629 | -79.61720 | 552 ft | 23 kts | 135° |
| 2026-05-06 21:37 | 43.67513 | -79.61564 | 552 ft | 23 kts | 141° |
| 2026-05-06 21:37 | 43.67387 | -79.61410 | 545 ft | 25 kts | 135° |
| 2026-05-06 21:37 | 43.67273 | -79.61264 | 538 ft | 17 kts | 149° |
| 2026-05-06 21:38 | 43.67202 | -79.61324 | 539 ft | 11 kts | 230° |
| 2026-05-06 21:38 | 43.67149 | -79.61403 | 539 ft | 10 kts | 225° |
| 2026-05-06 21:38 | 43.67104 | -79.61478 | 539 ft | 7 kts | 261° |
| 2026-05-06 21:38 | 43.67119 | -79.61509 | 541 ft | 3 kts | 316° |
| 2026-05-06 21:39 | 43.67174 | -79.61583 | 545 ft | 33 kts | 317° |
| 2026-05-06 21:39 | 43.67554 | -79.62077 | 552 ft | 116 kts | 316° |
| 2026-05-06 21:39 | 43.68300 | -79.63075 | 795 ft | 169 kts | 319° |
| 2026-05-06 21:39 | 43.69134 | -79.64164 | 1899 ft | 167 kts | 319° |
| 2026-05-06 21:40 | 43.70110 | -79.65088 | 2414 ft | 182 kts | 332° |
| 2026-05-06 21:40 | 43.71300 | -79.66000 | 2797 ft | 210 kts | 329° |
| 2026-05-06 21:40 | 43.72651 | -79.67104 | 3224 ft | 238 kts | 328° |
| 2026-05-06 21:40 | 43.74094 | -79.68287 | 3984 ft | 250 kts | 329° |
| 2026-05-06 21:41 | 43.75612 | -79.69484 | 4917 ft | 255 kts | 327° |
| 2026-05-06 21:41 | 43.76918 | -79.71081 | 5886 ft | 254 kts | 301° |
| 2026-05-06 21:41 | 43.77484 | -79.73351 | 6774 ft | 258 kts | 274° |
| 2026-05-06 21:41 | 43.77511 | -79.75816 | 7855 ft | 255 kts | 269° |
| 2026-05-06 21:42 | 43.77327 | -79.78258 | 8683 ft | 261 kts | 258° |
| 2026-05-06 21:42 | 43.76958 | -79.80675 | 9667 ft | 259 kts | 259° |
| 2026-05-06 21:42 | 43.76639 | -79.83115 | 10505 ft | 263 kts | 260° |
| 2026-05-06 21:42 | 43.76349 | -79.85681 | 10944 ft | 281 kts | 261° |
| 2026-05-06 21:43 | 43.76051 | -79.88451 | 11364 ft | 299 kts | 261° |
| 2026-05-06 21:43 | 43.75729 | -79.91329 | 11750 ft | 316 kts | 260° |
| 2026-05-06 21:43 | 43.75393 | -79.94456 | 12056 ft | 335 kts | 263° |
| 2026-05-06 21:43 | 43.75198 | -79.97690 | 12776 ft | 339 kts | 264° |
| 2026-05-06 21:44 | 43.74989 | -80.00926 | 13563 ft | 341 kts | 264° |
| 2026-05-06 21:44 | 43.74783 | -80.04145 | 14351 ft | 342 kts | 263° |
| 2026-05-06 21:44 | 43.74566 | -80.07478 | 15055 ft | 346 kts | 263° |
| 2026-05-06 21:44 | 43.74350 | -80.10759 | 15744 ft | 350 kts | 263° |
| 2026-05-06 21:45 | 43.74130 | -80.14101 | 16487 ft | 352 kts | 263° |
| 2026-05-06 21:45 | 43.73928 | -80.17526 | 17135 ft | 356 kts | 264° |
| 2026-05-06 21:45 | 43.73737 | -80.20886 | 17815 ft | 357 kts | 263° |
| 2026-05-06 21:45 | 43.73526 | -80.24309 | 18470 ft | 360 kts | 263° |
| 2026-05-06 21:46 | 43.73305 | -80.27747 | 19036 ft | 364 kts | 263° |
| 2026-05-06 21:46 | 43.73215 | -80.31256 | 19743 ft | 365 kts | 268° |
| 2026-05-06 21:46 | 43.73225 | -80.34785 | 20264 ft | 370 kts | 267° |
| 2026-05-06 21:46 | 43.73230 | -80.38349 | 20895 ft | 371 kts | 267° |
| 2026-05-06 21:47 | 43.73235 | -80.41934 | 21481 ft | 373 kts | 267° |
| 2026-05-06 21:47 | 43.73239 | -80.45490 | 22058 ft | 375 kts | 267° |
| 2026-05-06 21:47 | 43.73241 | -80.49110 | 22571 ft | 378 kts | 266° |
| 2026-05-06 21:47 | 43.73208 | -80.52696 | 23105 ft | 379 kts | 266° |
| 2026-05-06 21:48 | 43.73188 | -80.56356 | 23688 ft | 380 kts | 267° |
| 2026-05-06 21:48 | 43.73174 | -80.59993 | 24121 ft | 384 kts | 267° |
| 2026-05-06 21:48 | 43.73173 | -80.63673 | 24695 ft | 385 kts | 268° |
| 2026-05-06 21:48 | 43.73201 | -80.67417 | 25173 ft | 387 kts | 267° |
| 2026-05-06 21:49 | 43.73214 | -80.71131 | 25692 ft | 389 kts | 267° |
| 2026-05-06 21:49 | 43.73222 | -80.74929 | 26161 ft | 392 kts | 266° |
| 2026-05-06 21:49 | 43.73224 | -80.78661 | 26617 ft | 394 kts | 267° |
| 2026-05-06 21:49 | 43.73222 | -80.82474 | 27033 ft | 397 kts | 266° |
| 2026-05-06 21:50 | 43.73218 | -80.86311 | 27464 ft | 399 kts | 266° |
| 2026-05-06 21:50 | 43.73211 | -80.90158 | 27877 ft | 402 kts | 267° |
| 2026-05-06 21:50 | 43.73203 | -80.94014 | 28295 ft | 404 kts | 266° |
| 2026-05-06 21:50 | 43.73192 | -80.97866 | 28682 ft | 406 kts | 266° |
| 2026-05-06 21:51 | 43.73180 | -81.01815 | 29088 ft | 408 kts | 267° |
| 2026-05-06 21:51 | 43.73166 | -81.05684 | 29475 ft | 410 kts | 267° |
| 2026-05-06 21:51 | 43.73150 | -81.09669 | 29751 ft | 414 kts | 267° |
| 2026-05-06 21:51 | 43.73134 | -81.13596 | 30252 ft | 412 kts | 266° |
| 2026-05-06 21:52 | 43.73116 | -81.17524 | 30717 ft | 411 kts | 266° |
| 2026-05-06 21:52 | 43.73097 | -81.21455 | 31155 ft | 408 kts | 266° |
| 2026-05-06 21:52 | 43.73077 | -81.25372 | 31535 ft | 407 kts | 267° |
| 2026-05-06 21:52 | 43.73052 | -81.29258 | 31977 ft | 403 kts | 267° |
| 2026-05-06 21:53 | 43.72972 | -81.33099 | 32332 ft | 401 kts | 266° |
| 2026-05-06 21:53 | 43.72901 | -81.36897 | 32716 ft | 396 kts | 266° |
| 2026-05-06 21:53 | 43.72845 | -81.40685 | 33053 ft | 393 kts | 266° |
| 2026-05-06 21:53 | 43.72797 | -81.44421 | 33274 ft | 394 kts | 267° |
| 2026-05-06 21:54 | 43.72755 | -81.48229 | 33626 ft | 391 kts | 267° |
| 2026-05-06 21:54 | 43.72642 | -81.51949 | 34010 ft | 386 kts | 262° |
| 2026-05-06 21:54 | 43.72104 | -81.55538 | 34169 ft | 388 kts | 253° |
| 2026-05-06 21:54 | 43.71055 | -81.58946 | 34471 ft | 388 kts | 245° |
| 2026-05-06 21:55 | 43.69774 | -81.62241 | 34757 ft | 387 kts | 245° |
| 2026-05-06 21:55 | 43.68504 | -81.65488 | 35019 ft | 387 kts | 244° |
| 2026-05-06 21:55 | 43.67207 | -81.68755 | 35319 ft | 385 kts | 244° |
| 2026-05-06 21:55 | 43.65963 | -81.72009 | 35583 ft | 384 kts | 245° |
| 2026-05-06 21:56 | 43.64724 | -81.75258 | 35855 ft | 383 kts | 244° |
| 2026-05-06 21:56 | 43.63464 | -81.78478 | 35936 ft | 380 kts | 244° |
| 2026-05-06 21:56 | 43.60911 | -81.84875 | 35941 ft | 383 kts | 243° |
| 2026-05-06 21:57 | 43.58318 | -81.91264 | 35939 ft | 381 kts | 243° |
| 2026-05-06 21:57 | 43.55709 | -81.97643 | 35935 ft | 383 kts | 243° |
| 2026-05-06 21:58 | 43.53106 | -82.03970 | 35934 ft | 381 kts | 243° |
| 2026-05-06 21:58 | 43.50496 | -82.10296 | 35935 ft | 380 kts | 243° |
| 2026-05-06 21:59 | 43.46782 | -82.19394 | 35936 ft | 380 kts | 244° |
| 2026-05-06 21:59 | 43.37383 | -82.42928 | 35922 ft | 377 kts | 244° |
| 2026-05-06 22:00 | 43.35372 | -82.51312 | 35925 ft | 376 kts | 258° |
| 2026-05-06 22:00 | 43.18796 | -83.44256 | 35827 ft | 376 kts | 256° |
| 2026-05-06 22:01 | 42.99071 | -84.46995 | 35813 ft | 374 kts | 255° |
| 2026-05-06 22:01 | 42.98416 | -84.50432 | 35915 ft | 372 kts | 256° |
| 2026-05-06 22:01 | 42.97720 | -84.54119 | 35924 ft | 375 kts | 256° |
| 2026-05-06 22:02 | 42.89094 | -84.97816 | 35943 ft | 373 kts | 255° |
| 2026-05-06 22:02 | 42.87727 | -85.04617 | 35940 ft | 372 kts | 255° |
| 2026-05-06 22:03 | 42.86353 | -85.11430 | 35707 ft | 378 kts | 255° |
| 2026-05-06 22:03 | 42.85664 | -85.14830 | 35301 ft | 371 kts | 255° |
| 2026-05-06 22:03 | 42.84991 | -85.18157 | 34882 ft | 361 kts | 255° |
| 2026-05-06 22:04 | 42.84333 | -85.21403 | 34465 ft | 353 kts | 255° |
| 2026-05-06 22:04 | 42.83683 | -85.24597 | 34058 ft | 351 kts | 255° |
| 2026-05-06 22:04 | 42.83032 | -85.27800 | 33638 ft | 354 kts | 255° |
| 2026-05-06 22:04 | 42.82368 | -85.31053 | 33234 ft | 358 kts | 255° |
| 2026-05-06 22:05 | 42.81706 | -85.34298 | 32828 ft | 361 kts | 255° |
| 2026-05-06 22:05 | 42.81035 | -85.37575 | 32378 ft | 362 kts | 255° |
| 2026-05-06 22:05 | 42.80359 | -85.40874 | 31904 ft | 363 kts | 255° |
| 2026-05-06 22:05 | 42.79687 | -85.44146 | 31407 ft | 361 kts | 255° |
| 2026-05-06 22:06 | 42.79008 | -85.47436 | 30879 ft | 361 kts | 255° |
| 2026-05-06 22:06 | 42.78337 | -85.50722 | 30420 ft | 362 kts | 256° |
| 2026-05-06 22:06 | 42.77716 | -85.54044 | 29946 ft | 365 kts | 256° |
| 2026-05-06 22:06 | 42.77132 | -85.57377 | 29493 ft | 367 kts | 256° |
| 2026-05-06 22:07 | 42.76537 | -85.60789 | 29021 ft | 368 kts | 257° |
| 2026-05-06 22:07 | 42.75947 | -85.64130 | 28635 ft | 361 kts | 256° |
| 2026-05-06 22:07 | 42.75366 | -85.67402 | 28146 ft | 359 kts | 256° |
| 2026-05-06 22:07 | 42.74777 | -85.70695 | 27699 ft | 355 kts | 256° |
| 2026-05-06 22:08 | 42.73896 | -85.75604 | 27024 ft | 351 kts | 256° |
| 2026-05-06 22:08 | 42.72713 | -85.82153 | 26145 ft | 348 kts | 256° |
| 2026-05-06 22:08 | 42.72125 | -85.85400 | 25693 ft | 346 kts | 256° |
| 2026-05-06 22:08 | 42.71554 | -85.88540 | 25267 ft | 345 kts | 255° |
| 2026-05-06 22:09 | 42.70986 | -85.91648 | 24831 ft | 341 kts | 255° |
| 2026-05-06 22:09 | 42.70384 | -85.94743 | 24404 ft | 340 kts | 254° |
| 2026-05-06 22:09 | 42.69793 | -85.97833 | 23971 ft | 338 kts | 255° |
| 2026-05-06 22:09 | 42.69215 | -86.00922 | 23543 ft | 335 kts | 255° |
| 2026-05-06 22:10 | 42.68680 | -86.03989 | 23133 ft | 335 kts | 255° |
| 2026-05-06 22:10 | 42.68134 | -86.07056 | 22715 ft | 336 kts | 256° |
| 2026-05-06 22:10 | 42.67579 | -86.10138 | 22282 ft | 334 kts | 256° |
| 2026-05-06 22:10 | 42.67028 | -86.13173 | 21858 ft | 333 kts | 255° |
| 2026-05-06 22:11 | 42.66428 | -86.16460 | 21416 ft | 333 kts | 255° |
| 2026-05-06 22:11 | 42.65429 | -86.21880 | 20670 ft | 332 kts | 255° |
| 2026-05-06 22:11 | 42.64866 | -86.24925 | 20232 ft | 332 kts | 256° |
| 2026-05-06 22:11 | 42.64311 | -86.27917 | 19994 ft | 328 kts | 255° |
| 2026-05-06 22:12 | 42.63752 | -86.30931 | 19988 ft | 326 kts | 255° |
| 2026-05-06 22:12 | 42.63164 | -86.33929 | 19385 ft | 335 kts | 254° |
| 2026-05-06 22:12 | 42.62566 | -86.36958 | 18744 ft | 332 kts | 255° |
| 2026-05-06 22:12 | 42.61985 | -86.39958 | 18116 ft | 328 kts | 255° |
| 2026-05-06 22:13 | 42.61045 | -86.44878 | 17086 ft | 327 kts | 256° |
| 2026-05-06 22:13 | 42.59945 | -86.50693 | 15947 ft | 325 kts | 256° |
| 2026-05-06 22:13 | 42.58813 | -86.56686 | 14853 ft | 324 kts | 256° |
| 2026-05-06 22:13 | 42.57687 | -86.62347 | 13864 ft | 324 kts | 256° |
| 2026-05-06 22:14 | 42.56958 | -86.66042 | 13238 ft | 322 kts | 256° |
| 2026-05-06 22:14 | 42.56390 | -86.68965 | 12754 ft | 321 kts | 256° |
| 2026-05-06 22:14 | 42.55813 | -86.71878 | 12244 ft | 321 kts | 253° |
| 2026-05-06 22:14 | 42.55053 | -86.74729 | 11842 ft | 317 kts | 251° |
| 2026-05-06 22:15 | 42.53739 | -86.79698 | 11248 ft | 319 kts | 253° |
| 2026-05-06 22:15 | 42.52305 | -86.85523 | 10491 ft | 318 kts | 252° |
| 2026-05-06 22:15 | 42.50782 | -86.91345 | 10173 ft | 290 kts | 251° |
| 2026-05-06 22:15 | 42.49481 | -86.96192 | 10105 ft | 258 kts | 251° |
| 2026-05-06 22:16 | 42.48890 | -86.98373 | 10064 ft | 242 kts | 251° |
| 2026-05-06 22:16 | 42.48306 | -87.00530 | 10017 ft | 248 kts | 251° |
| 2026-05-06 22:16 | 42.47706 | -87.02741 | 9922 ft | 252 kts | 251° |
| 2026-05-06 22:16 | 42.47097 | -87.04971 | 9777 ft | 250 kts | 251° |
| 2026-05-06 22:17 | 42.46494 | -87.07182 | 9625 ft | 250 kts | 251° |
| 2026-05-06 22:17 | 42.45896 | -87.09369 | 9474 ft | 251 kts | 251° |
| 2026-05-06 22:17 | 42.45288 | -87.11591 | 9301 ft | 250 kts | 251° |
| 2026-05-06 22:17 | 42.44696 | -87.13751 | 9263 ft | 246 kts | 251° |
| 2026-05-06 22:18 | 42.44093 | -87.15953 | 9240 ft | 248 kts | 251° |
| 2026-05-06 22:18 | 42.43491 | -87.18089 | 9048 ft | 245 kts | 246° |
| 2026-05-06 22:18 | 42.41372 | -87.20624 | 8556 ft | 250 kts | 212° |
| 2026-05-06 22:18 | 42.38382 | -87.23161 | 8059 ft | 258 kts | 219° |
| 2026-05-06 22:19 | 42.35712 | -87.25787 | 7574 ft | 253 kts | 221° |
| 2026-05-06 22:19 | 42.33672 | -87.27886 | 7198 ft | 253 kts | 221° |
| 2026-05-06 22:19 | 42.32280 | -87.29340 | 6932 ft | 252 kts | 222° |
| 2026-05-06 22:19 | 42.30191 | -87.31538 | 6540 ft | 252 kts | 222° |
| 2026-05-06 22:20 | 42.28025 | -87.33826 | 6137 ft | 252 kts | 222° |
| 2026-05-06 22:20 | 42.26648 | -87.35282 | 5881 ft | 252 kts | 222° |
| 2026-05-06 22:20 | 42.25268 | -87.36741 | 5616 ft | 251 kts | 222° |
| 2026-05-06 22:20 | 42.23155 | -87.38974 | 5218 ft | 250 kts | 222° |
| 2026-05-06 22:21 | 42.20769 | -87.41496 | 4768 ft | 250 kts | 222° |
| 2026-05-06 22:21 | 42.18425 | -87.43969 | 4438 ft | 247 kts | 222° |
| 2026-05-06 22:21 | 42.16354 | -87.46154 | 4204 ft | 248 kts | 222° |
| 2026-05-06 22:21 | 42.14785 | -87.47809 | 4025 ft | 247 kts | 222° |
| 2026-05-06 22:22 | 42.12392 | -87.50327 | 3992 ft | 247 kts | 222° |
| 2026-05-06 22:22 | 42.09957 | -87.52889 | 3996 ft | 248 kts | 222° |
| 2026-05-06 22:22 | 42.08178 | -87.54759 | 3990 ft | 249 kts | 222° |
| 2026-05-06 22:22 | 42.06818 | -87.56187 | 3996 ft | 249 kts | 222° |
| 2026-05-06 22:23 | 42.05439 | -87.57635 | 3998 ft | 249 kts | 222° |
| 2026-05-06 22:23 | 42.04090 | -87.59048 | 3981 ft | 240 kts | 222° |
| 2026-05-06 22:23 | 42.02806 | -87.60390 | 3971 ft | 225 kts | 222° |
| 2026-05-06 22:23 | 42.01615 | -87.61635 | 3982 ft | 213 kts | 223° |
| 2026-05-06 22:24 | 42.00438 | -87.62875 | 4015 ft | 220 kts | 223° |
| 2026-05-06 22:24 | 41.99229 | -87.64175 | 3992 ft | 220 kts | 230° |
| 2026-05-06 22:24 | 41.98438 | -87.65860 | 4015 ft | 211 kts | 256° |
| 2026-05-06 22:24 | 41.98297 | -87.67783 | 3833 ft | 204 kts | 273° |
| 2026-05-06 22:25 | 41.98352 | -87.69668 | 3543 ft | 202 kts | 275° |
| 2026-05-06 22:25 | 41.98417 | -87.71551 | 3221 ft | 201 kts | 272° |
| 2026-05-06 22:25 | 41.98402 | -87.73403 | 3031 ft | 196 kts | 272° |
| 2026-05-06 22:25 | 41.98379 | -87.75227 | 2715 ft | 188 kts | 270° |
| 2026-05-06 22:26 | 41.98331 | -87.76864 | 2528 ft | 166 kts | 271° |
| 2026-05-06 22:26 | 41.98334 | -87.78303 | 2368 ft | 143 kts | 272° |
| 2026-05-06 22:26 | 41.98344 | -87.79572 | 2101 ft | 129 kts | 274° |
| 2026-05-06 22:26 | 41.98365 | -87.80737 | 1897 ft | 124 kts | 272° |
| 2026-05-06 22:27 | 41.98372 | -87.81905 | 1683 ft | 124 kts | 273° |
| 2026-05-06 22:27 | 41.98370 | -87.83039 | 1534 ft | 119 kts | 269° |
| 2026-05-06 22:27 | 41.98361 | -87.84172 | 1369 ft | 120 kts | 275° |
| 2026-05-06 22:27 | 41.98373 | -87.85282 | 1218 ft | 123 kts | 269° |
| 2026-05-06 22:28 | 41.98378 | -87.86436 | 1043 ft | 125 kts | 271° |
| 2026-05-06 22:28 | 41.98369 | -87.87616 | 928 ft | 125 kts | 272° |
| 2026-05-06 22:28 | 41.98373 | -87.88788 | 763 ft | 126 kts | 270° |
| 2026-05-06 22:28 | 41.98370 | -87.89951 | 678 ft | 120 kts | 271° |
| 2026-05-06 22:29 | 41.98373 | -87.90776 | 677 ft | 31 kts | 270° |